Terminal Aerodrome Forecast
Issued by NWS Buffalo, NY

Home | Current Version | Previous Version | Text Only | Print | Product List | Glossary On
Versions: 1 2 3 4 5 6 7 8 9 10 11 12 13 14 15 16 17 18 19 20 21 22 23 24 25
000
FTUS41 KBUF 211700
TAFROC
TAF
KROC 211740Z 2118/2218 29012KT P6SM VCSH BKN040
     FM212100 VRB03KT P6SM VCSH BKN040
     FM220200 VRB03KT P6SM BKN035
     FM220900 00000KT 6SM BR BKN020
     FM221500 01004KT P6SM BKN020
     FM221600 01005KT P6SM BKN025=

USA.gov is the U.S. government's official web portal to all federal, state and local government web resources and services.